createdAt,value
2019-03-29T00:01:41.465Z,7.40
2019-03-29T00:04:12.885Z,7.40
2019-03-29T00:06:46.900Z,7.40
2019-03-29T00:09:18.303Z,7.40
2019-03-29T00:11:46.718Z,7.40
2019-03-29T00:14:23.365Z,7.40
2019-03-29T00:16:56.336Z,7.40
2019-03-29T00:19:26.410Z,7.30
2019-03-29T00:21:57.341Z,7.30
2019-03-29T00:24:28.457Z,7.30
2019-03-29T00:27:02.678Z,7.30
2019-03-29T00:29:37.279Z,7.30
2019-03-29T00:32:10.345Z,7.30
2019-03-29T00:34:50.647Z,7.30
2019-03-29T00:37:22.203Z,7.30
2019-03-29T00:39:51.049Z,7.30
2019-03-29T00:42:25.566Z,7.30
2019-03-29T00:44:56.966Z,7.30
2019-03-29T00:47:34.014Z,7.30
2019-03-29T00:50:07.067Z,7.30
2019-03-29T00:52:38.847Z,7.30
2019-03-29T00:55:10.049Z,7.30
2019-03-29T00:57:38.459Z,7.30
2019-03-29T01:00:13.422Z,7.30
2019-03-29T01:02:41.835Z,7.30
2019-03-29T01:05:11.485Z,7.30
2019-03-29T01:07:42.886Z,7.30
2019-03-29T01:10:17.101Z,7.30
2019-03-29T01:12:45.835Z,7.30
2019-03-29T01:15:17.111Z,7.30
2019-03-29T01:17:54.146Z,7.30
2019-03-29T01:20:24.209Z,7.30
2019-03-29T01:22:54.269Z,7.30
2019-03-29T01:25:23.034Z,7.30
2019-03-29T01:27:53.153Z,7.30
2019-03-29T01:30:23.039Z,7.30
2019-03-29T01:32:59.702Z,7.30
2019-03-29T01:35:34.005Z,7.30
2019-03-29T01:38:21.079Z,7.30
2019-03-29T01:40:49.598Z,7.30
2019-03-29T01:43:23.906Z,7.30
2019-03-29T01:45:53.972Z,7.30
2019-03-29T01:48:28.991Z,7.30
2019-03-29T01:50:57.417Z,7.30
2019-03-29T01:53:27.473Z,7.30
2019-03-29T01:56:04.707Z,7.30
2019-03-29T01:58:37.810Z,7.30
2019-03-29T02:01:09.370Z,7.30
2019-03-29T02:03:42.097Z,7.30
2019-03-29T02:06:10.529Z,7.30
2019-03-29T02:08:38.947Z,7.30
2019-03-29T02:11:10.373Z,7.30
2019-03-29T02:13:44.979Z,7.30
2019-03-29T02:16:13.665Z,7.20
2019-03-29T02:18:44.972Z,7.20
2019-03-29T02:21:13.570Z,7.20
2019-03-29T02:23:41.984Z,7.20
2019-03-29T02:26:15.211Z,7.20
2019-03-29T02:28:48.209Z,7.20
2019-03-29T02:31:16.971Z,7.20
2019-03-29T02:33:45.383Z,7.20
2019-03-29T02:36:13.812Z,7.20
2019-03-29T02:38:54.907Z,7.20
2019-03-29T02:41:15.406Z,7.20
2019-03-29T02:43:52.485Z,7.20
2019-03-29T02:46:20.981Z,7.20
2019-03-29T02:48:49.397Z,7.20
2019-03-29T02:51:19.465Z,7.20
2019-03-29T02:53:50.898Z,7.10
2019-03-29T02:56:19.427Z,7.10
2019-03-29T02:58:47.997Z,7.10
2019-03-29T03:01:20.488Z,7.10
2019-03-29T03:03:53.204Z,7.00
2019-03-29T03:06:26.002Z,7.00
2019-03-29T03:09:12.126Z,7.00
2019-03-29T03:11:26.199Z,7.00
2019-03-29T03:13:54.615Z,7.00
2019-03-29T03:16:23.050Z,7.00
2019-03-29T03:18:57.870Z,7.00
2019-03-29T03:21:33.521Z,7.00
2019-03-29T03:24:01.001Z,7.00
2019-03-29T03:26:34.023Z,7.00
2019-03-29T03:29:08.581Z,7.00
2019-03-29T03:31:37.006Z,7.00
2019-03-29T03:34:05.427Z,7.00
2019-03-29T03:36:35.496Z,7.00
2019-03-29T03:39:06.728Z,7.00
2019-03-29T03:41:35.946Z,6.90
2019-03-29T03:44:04.678Z,6.90
2019-03-29T03:46:38.745Z,6.90
2019-03-29T03:49:10.329Z,6.90
2019-03-29T03:51:38.930Z,6.90
2019-03-29T03:54:09.993Z,6.90
2019-03-29T03:56:41.378Z,6.90
2019-03-29T03:59:14.609Z,6.90
2019-03-29T04:01:46.558Z,6.90
2019-03-29T04:04:19.537Z,6.80
2019-03-29T04:06:50.665Z,6.80
2019-03-29T04:09:20.712Z,6.80
2019-03-29T04:11:50.797Z,6.80
2019-03-29T04:14:21.934Z,6.80
2019-03-29T04:16:52.001Z,6.80
2019-03-29T04:19:20.415Z,6.80
2019-03-29T04:21:48.858Z,6.80
2019-03-29T04:24:18.538Z,6.80
2019-03-29T04:26:51.415Z,6.80
2019-03-29T04:29:24.172Z,6.80
2019-03-29T04:32:01.394Z,6.80
2019-03-29T04:34:34.133Z,6.80
2019-03-29T04:37:02.844Z,6.80
2019-03-29T04:39:31.347Z,6.80
2019-03-29T04:42:05.132Z,6.70
2019-03-29T04:44:39.254Z,6.70
2019-03-29T04:47:10.646Z,6.70
2019-03-29T04:49:48.941Z,6.70
2019-03-29T04:52:23.217Z,6.70
2019-03-29T04:54:51.645Z,6.70
2019-03-29T04:57:22.769Z,6.70
2019-03-29T04:59:55.486Z,6.70
2019-03-29T05:02:25.566Z,6.70
2019-03-29T05:05:04.070Z,6.70
2019-03-29T05:07:37.002Z,6.70
2019-03-29T05:10:20.223Z,6.70
2019-03-29T05:12:37.732Z,6.70
2019-03-29T05:15:09.496Z,6.70
2019-03-29T05:17:38.732Z,6.70
2019-03-29T05:20:10.720Z,6.70
2019-03-29T05:22:43.500Z,6.80
2019-03-29T05:25:11.924Z,6.80
2019-03-29T05:27:46.314Z,6.80
2019-03-29T05:30:18.109Z,6.80
2019-03-29T05:32:46.546Z,6.80
2019-03-29T05:35:17.541Z,6.80
2019-03-29T05:37:45.961Z,6.90
2019-03-29T05:40:14.393Z,6.90
2019-03-29T05:42:47.426Z,6.90
2019-03-29T05:45:21.573Z,7.00
2019-03-29T05:47:51.597Z,7.00
2019-03-29T05:50:28.470Z,7.00
2019-03-29T05:52:56.885Z,7.10
2019-03-29T05:55:32.799Z,7.10
2019-03-29T05:57:58.408Z,7.20
2019-03-29T06:00:32.693Z,7.20
2019-03-29T06:03:01.117Z,7.30
2019-03-29T06:05:35.588Z,7.40
2019-03-29T06:08:09.631Z,7.50
2019-03-29T06:10:48.217Z,7.60
2019-03-29T06:13:09.049Z,7.80
2019-03-29T06:15:44.629Z,7.80
2019-03-29T06:18:14.681Z,8.00
2019-03-29T06:20:51.677Z,8.00
2019-03-29T06:23:25.545Z,8.10
2019-03-29T06:25:53.944Z,8.20
2019-03-29T06:28:25.539Z,8.40
2019-03-29T06:30:55.581Z,8.60
2019-03-29T06:33:27.962Z,8.90
2019-03-29T06:36:06.588Z,9.30
2019-03-29T06:38:44.528Z,9.70
2019-03-29T06:41:18.568Z,10.20
2019-03-29T06:43:51.312Z,10.70
2019-03-29T06:46:28.403Z,11.60
2019-03-29T06:48:56.841Z,12.20
2019-03-29T06:51:31.200Z,12.80
2019-03-29T06:54:02.589Z,13.60
2019-03-29T06:56:39.664Z,14.80
2019-03-29T06:59:09.745Z,16.50
2019-03-29T07:01:46.704Z,17.90
2019-03-29T07:04:20.928Z,17.90
2019-03-29T07:06:50.995Z,18.40
2019-03-29T07:09:24.812Z,19.10
2019-03-29T07:12:02.026Z,19.70
2019-03-29T07:14:33.393Z,19.10
2019-03-29T07:17:04.471Z,17.20
2019-03-29T07:19:32.904Z,15.10
2019-03-29T07:22:04.657Z,13.60
2019-03-29T07:24:38.029Z,12.80
2019-03-29T07:27:06.442Z,12.10
2019-03-29T07:29:40.656Z,11.70
2019-03-29T07:32:18.333Z,11.30
2019-03-29T07:34:54.613Z,11.00
2019-03-29T07:37:23.028Z,11.10
2019-03-29T07:39:53.946Z,11.30
2019-03-29T07:42:31.980Z,11.40
2019-03-29T07:45:00.856Z,11.50
2019-03-29T07:47:38.268Z,11.90
2019-03-29T07:50:19.317Z,13.20
2019-03-29T07:52:47.862Z,13.50
2019-03-29T07:55:21.015Z,13.60
2019-03-29T07:57:51.804Z,13.20
2019-03-29T08:00:24.783Z,13.90
2019-03-29T08:02:56.125Z,15.30
2019-03-29T08:05:24.551Z,16.80
2019-03-29T08:07:53.261Z,17.30
2019-03-29T08:10:31.951Z,17.50
2019-03-29T08:13:03.333Z,18.50
2019-03-29T08:15:34.713Z,19.80
2019-03-29T08:18:06.165Z,21.20
2019-03-29T08:20:43.522Z,21.80
2019-03-29T08:23:09.157Z,21.90
2019-03-29T08:25:41.097Z,21.50
2019-03-29T08:28:09.507Z,21.60
2019-03-29T08:30:38.968Z,22.30
2019-03-29T08:33:22.943Z,23.40
2019-03-29T08:35:54.281Z,24.30
2019-03-29T08:38:31.429Z,24.60
2019-03-29T08:41:07.536Z,24.60
2019-03-29T08:43:35.949Z,23.50
2019-03-29T08:46:08.612Z,22.30
2019-03-29T08:48:38.673Z,22.10
2019-03-29T08:51:13.098Z,22.70
2019-03-29T08:53:44.067Z,22.90
2019-03-29T08:56:12.501Z,23.50
2019-03-29T08:58:46.760Z,23.90
2019-03-29T09:01:15.346Z,24.10
2019-03-29T09:04:02.768Z,24.80
2019-03-29T09:06:22.928Z,25.60
2019-03-29T09:08:52.215Z,25.70
2019-03-29T09:11:20.639Z,26.00
2019-03-29T09:13:52.762Z,27.50
2019-03-29T09:16:21.141Z,28.70
2019-03-29T09:18:49.568Z,29.90
2019-03-29T09:21:17.994Z,30.40
2019-03-29T09:23:52.843Z,30.30
2019-03-29T09:26:22.918Z,29.40
2019-03-29T09:28:51.326Z,27.70
2019-03-29T09:31:19.750Z,27.00
2019-03-29T09:33:54.217Z,26.80
2019-03-29T09:36:26.056Z,26.70
2019-03-29T09:39:00.242Z,25.70
2019-03-29T09:41:28.736Z,25.60
2019-03-29T09:43:57.430Z,25.60
2019-03-29T09:46:26.034Z,25.40
2019-03-29T09:49:08.249Z,25.20
2019-03-29T09:51:37.937Z,25.40
2019-03-29T09:54:10.396Z,25.60
2019-03-29T09:56:40.457Z,25.70
2019-03-29T09:59:23.229Z,25.40
2019-03-29T10:01:57.858Z,25.10
2019-03-29T10:04:35.105Z,24.70
2019-03-29T10:07:04.536Z,25.70
2019-03-29T10:09:36.293Z,26.10
2019-03-29T10:12:06.426Z,26.10
2019-03-29T10:14:36.392Z,25.70
2019-03-29T10:17:07.822Z,25.50
2019-03-29T10:19:36.236Z,25.50
2019-03-29T10:22:07.429Z,24.70
2019-03-29T10:24:41.668Z,24.00
2019-03-29T10:27:11.755Z,23.60
2019-03-29T10:29:45.209Z,23.90
2019-03-29T10:32:25.661Z,24.00
2019-03-29T10:34:58.369Z,24.50
2019-03-29T10:37:30.194Z,25.10
2019-03-29T10:39:58.590Z,25.20
2019-03-29T10:42:27.013Z,25.10
2019-03-29T10:44:57.079Z,24.50
2019-03-29T10:47:43.093Z,23.80
2019-03-29T10:50:00.370Z,23.30
2019-03-29T10:52:30.529Z,23.50
2019-03-29T10:55:02.106Z,23.40
2019-03-29T10:57:37.782Z,23.30
2019-03-29T11:00:10.148Z,23.50
2019-03-29T11:02:44.200Z,23.50
2019-03-29T11:05:12.857Z,23.30
2019-03-29T11:07:42.205Z,23.30
2019-03-29T11:10:13.694Z,23.10
2019-03-29T11:12:45.204Z,23.30
2019-03-29T11:15:13.865Z,23.40
2019-03-29T11:17:43.923Z,23.40
2019-03-29T11:20:18.729Z,23.50
2019-03-29T11:22:49.246Z,23.10
2019-03-29T11:25:20.346Z,22.70
2019-03-29T11:27:48.841Z,22.90
2019-03-29T11:30:18.793Z,22.90
2019-03-29T11:32:48.853Z,22.90
2019-03-29T11:35:18.551Z,22.70
2019-03-29T11:38:04.557Z,22.80
2019-03-29T11:40:32.977Z,22.70
2019-03-29T11:43:01.400Z,22.50
2019-03-29T11:45:34.361Z,22.70
2019-03-29T11:48:09.019Z,22.90
2019-03-29T11:50:39.431Z,22.40
2019-03-29T11:53:07.909Z,22.20
2019-03-29T11:55:42.097Z,21.90
2019-03-29T11:58:10.521Z,21.70
2019-03-29T12:00:40.844Z,21.60
2019-03-29T12:03:15.125Z,21.50
2019-03-29T12:05:49.004Z,21.30
2019-03-29T12:08:18.205Z,20.90
2019-03-29T12:10:50.073Z,20.30
2019-03-29T12:13:21.264Z,19.80
2019-03-29T12:15:57.047Z,19.80
2019-03-29T12:18:36.911Z,20.00
2019-03-29T12:21:05.325Z,20.20
2019-03-29T12:23:37.514Z,20.60
2019-03-29T12:26:08.782Z,20.80
2019-03-29T12:28:37.588Z,21.10
2019-03-29T12:31:15.454Z,20.90
2019-03-29T12:33:43.874Z,21.00
2019-03-29T12:36:15.094Z,20.80
2019-03-29T12:38:45.152Z,20.30
2019-03-29T12:41:13.874Z,19.80
2019-03-29T12:43:54.892Z,19.20
2019-03-29T12:46:16.917Z,19.00
2019-03-29T12:48:45.370Z,18.90
2019-03-29T12:51:13.784Z,19.00
2019-03-29T12:53:42.251Z,19.10
2019-03-29T12:56:16.516Z,19.30
2019-03-29T12:59:22.006Z,19.20
2019-03-29T13:01:39.333Z,18.60
2019-03-29T13:04:02.537Z,17.80
2019-03-29T13:06:35.428Z,17.00
2019-03-29T13:09:08.453Z,16.80
2019-03-29T13:11:44.471Z,16.50
2019-03-29T13:14:14.405Z,16.20
2019-03-29T13:16:42.818Z,16.10
2019-03-29T13:19:12.875Z,16.00
2019-03-29T13:21:43.201Z,15.90
2019-03-29T13:24:16.052Z,15.70
2019-03-29T13:26:44.449Z,15.50
2019-03-29T13:29:18.608Z,15.50
2019-03-29T13:31:47.024Z,15.30
2019-03-29T13:34:20.093Z,15.10
2019-03-29T13:36:48.522Z,14.80
2019-03-29T13:39:16.926Z,14.70
2019-03-29T13:41:49.718Z,14.70
2019-03-29T13:44:24.473Z,14.80
2019-03-29T13:46:52.900Z,14.80
2019-03-29T13:49:24.735Z,14.80
2019-03-29T13:51:57.297Z,14.70
2019-03-29T13:54:31.585Z,14.70
2019-03-29T13:57:00.117Z,14.70
2019-03-29T13:59:31.613Z,14.70
2019-03-29T14:01:58.683Z,14.60
2019-03-29T14:04:30.838Z,14.50
2019-03-29T14:07:10.969Z,14.40
2019-03-29T14:09:42.345Z,14.40
2019-03-29T14:12:15.224Z,14.30
2019-03-29T14:14:46.308Z,14.30
2019-03-29T14:17:16.370Z,14.30
2019-03-29T14:19:44.785Z,14.30
2019-03-29T14:22:13.196Z,14.20
2019-03-29T14:24:41.848Z,14.10
2019-03-29T14:27:13.669Z,14.10
2019-03-29T14:29:45.024Z,14.10
2019-03-29T14:32:25.309Z,14.10
2019-03-29T14:34:56.806Z,14.20
2019-03-29T14:37:28.093Z,14.30
2019-03-29T14:39:56.505Z,14.30
2019-03-29T14:42:24.931Z,14.40
2019-03-29T14:44:57.917Z,14.30
2019-03-29T14:47:41.346Z,14.20
2019-03-29T14:50:04.057Z,14.20
2019-03-29T14:52:32.483Z,14.10
2019-03-29T14:55:03.679Z,14.10
2019-03-29T14:57:35.057Z,14.00
2019-03-29T15:00:06.562Z,14.00
2019-03-29T15:02:40.778Z,14.00
2019-03-29T15:05:09.358Z,14.00
2019-03-29T15:07:39.857Z,14.00
2019-03-29T15:10:25.814Z,13.90
2019-03-29T15:12:55.573Z,13.90
2019-03-29T15:15:35.563Z,14.00
2019-03-29T15:18:03.997Z,14.00
2019-03-29T15:20:35.413Z,13.90
2019-03-29T15:23:05.545Z,13.90
2019-03-29T15:25:36.821Z,13.90
2019-03-29T15:28:09.822Z,13.90
2019-03-29T15:30:46.920Z,13.80
2019-03-29T15:33:16.993Z,13.90
2019-03-29T15:35:48.629Z,13.80
2019-03-29T15:38:21.071Z,13.80
2019-03-29T15:40:52.341Z,13.90
2019-03-29T15:43:23.769Z,13.90
2019-03-29T15:45:55.009Z,14.00
2019-03-29T15:48:27.901Z,14.00
2019-03-29T15:50:57.986Z,14.00
2019-03-29T15:53:31.958Z,14.10
2019-03-29T15:56:03.489Z,14.10
2019-03-29T15:58:34.872Z,14.00
2019-03-29T16:01:15.300Z,14.00
2019-03-29T16:03:43.725Z,14.00
2019-03-29T16:06:12.144Z,14.00
2019-03-29T16:08:40.568Z,14.00
2019-03-29T16:11:17.008Z,14.00
2019-03-29T16:13:43.908Z,14.10
2019-03-29T16:16:12.528Z,14.10
2019-03-29T16:18:46.721Z,14.10
2019-03-29T16:21:34.675Z,14.10
2019-03-29T16:24:01.863Z,14.00
2019-03-29T16:26:36.177Z,14.00
2019-03-29T16:29:08.918Z,14.00
2019-03-29T16:31:39.990Z,13.90
2019-03-29T16:34:08.997Z,13.90
2019-03-29T16:36:37.419Z,13.90
2019-03-29T16:39:09.238Z,13.90
2019-03-29T16:41:40.418Z,13.90
2019-03-29T16:44:08.842Z,13.90
2019-03-29T16:46:38.897Z,13.90
2019-03-29T16:49:07.325Z,14.00
2019-03-29T16:51:35.747Z,13.90
2019-03-29T16:54:06.813Z,13.70
2019-03-29T16:56:44.221Z,13.70
2019-03-29T16:59:15.333Z,13.50
2019-03-29T17:01:46.705Z,13.40
2019-03-29T17:04:17.030Z,13.30
2019-03-29T17:06:48.116Z,13.30
2019-03-29T17:09:17.773Z,13.10
2019-03-29T17:11:46.382Z,13.10
2019-03-29T17:14:17.528Z,12.90
2019-03-29T17:16:53.578Z,12.80
2019-03-29T17:19:23.341Z,12.70
2019-03-29T17:21:52.051Z,12.50
2019-03-29T17:24:20.649Z,12.40
2019-03-29T17:26:54.825Z,12.30
2019-03-29T17:29:24.153Z,12.10
2019-03-29T17:31:57.152Z,12.00
2019-03-29T17:34:25.569Z,11.80
2019-03-29T17:37:05.756Z,11.60
2019-03-29T17:39:39.197Z,11.40
2019-03-29T17:42:07.710Z,11.30
2019-03-29T17:44:38.121Z,11.20
2019-03-29T17:47:06.535Z,11.10
2019-03-29T17:49:39.764Z,11.00
2019-03-29T17:52:10.897Z,10.80
2019-03-29T17:54:39.332Z,10.70
2019-03-29T17:57:07.785Z,10.50
2019-03-29T17:59:41.831Z,10.30
2019-03-29T18:02:13.231Z,10.20
2019-03-29T18:04:41.705Z,10.10
2019-03-29T18:07:10.125Z,10.00
2019-03-29T18:09:38.573Z,10.00
2019-03-29T18:12:06.978Z,9.90
2019-03-29T18:14:35.692Z,9.80
2019-03-29T18:17:04.977Z,9.70
2019-03-29T18:19:42.401Z,9.60
2019-03-29T18:22:16.857Z,9.50
2019-03-29T18:24:48.194Z,9.50
2019-03-29T18:27:22.720Z,9.40
2019-03-29T18:29:51.407Z,9.40
2019-03-29T18:32:27.375Z,9.20
2019-03-29T18:35:00.044Z,9.10
2019-03-29T18:37:28.825Z,9.00
2019-03-29T18:39:57.381Z,8.90
2019-03-29T18:42:25.797Z,8.80
2019-03-29T18:44:54.217Z,8.70
2019-03-29T18:47:26.936Z,8.60
2019-03-29T18:49:56.994Z,8.60
2019-03-29T18:52:28.113Z,8.50
2019-03-29T18:54:56.541Z,8.40
2019-03-29T18:57:34.261Z,8.30
2019-03-29T19:00:02.848Z,8.30
2019-03-29T19:02:31.266Z,8.20
2019-03-29T19:05:02.385Z,8.20
2019-03-29T19:07:35.653Z,8.10
2019-03-29T19:10:05.872Z,8.00
2019-03-29T19:12:34.296Z,7.90
2019-03-29T19:15:08.635Z,7.80
2019-03-29T19:17:41.781Z,7.80
2019-03-29T19:20:11.013Z,7.70
2019-03-29T19:22:41.237Z,7.60
2019-03-29T19:25:09.789Z,7.60
2019-03-29T19:27:39.856Z,7.50
2019-03-29T19:30:12.421Z,7.40
2019-03-29T19:32:40.853Z,7.40
2019-03-29T19:35:11.150Z,7.30
2019-03-29T19:37:45.653Z,7.30
2019-03-29T19:40:17.519Z,7.20
2019-03-29T19:42:45.943Z,7.10
2019-03-29T19:45:14.797Z,7.10
2019-03-29T19:47:44.877Z,7.00
2019-03-29T19:50:16.272Z,6.90
2019-03-29T19:52:47.462Z,6.80
2019-03-29T19:55:20.430Z,6.80
2019-03-29T19:57:48.838Z,6.70
2019-03-29T20:00:19.714Z,6.70
2019-03-29T20:02:50.853Z,6.60
2019-03-29T20:05:30.207Z,6.50
2019-03-29T20:08:02.224Z,6.50
2019-03-29T20:10:35.368Z,6.40
2019-03-29T20:13:09.487Z,6.40
2019-03-29T20:15:43.914Z,6.30
2019-03-29T20:18:18.254Z,6.20
2019-03-29T20:20:46.664Z,6.20
2019-03-29T20:23:18.381Z,6.10
2019-03-29T20:25:46.805Z,6.10
2019-03-29T20:28:20.961Z,6.00
2019-03-29T20:30:51.016Z,6.00
2019-03-29T20:33:20.106Z,6.00
2019-03-29T20:35:51.475Z,5.90
2019-03-29T20:38:21.106Z,5.90
2019-03-29T20:40:49.517Z,5.80
2019-03-29T20:43:17.940Z,5.70
2019-03-29T20:45:49.299Z,5.70
2019-03-29T20:48:18.137Z,5.60
2019-03-29T20:50:46.549Z,5.60
2019-03-29T20:53:15.884Z,5.50
2019-03-29T20:55:47.261Z,5.50
2019-03-29T20:58:21.324Z,5.40
2019-03-29T21:00:49.733Z,5.40
2019-03-29T21:03:18.506Z,5.30
2019-03-29T21:05:48.822Z,5.20
2019-03-29T21:08:23.013Z,5.20
2019-03-29T21:10:56.137Z,5.20
2019-03-29T21:13:23.577Z,5.10
2019-03-29T21:15:57.074Z,5.00
2019-03-29T21:18:33.158Z,5.00
2019-03-29T21:20:58.713Z,5.00
2019-03-29T21:23:29.906Z,5.00
2019-03-29T21:26:01.228Z,4.90
2019-03-29T21:28:34.921Z,4.90
2019-03-29T21:31:02.433Z,4.90
2019-03-29T21:33:30.856Z,4.90
2019-03-29T21:36:00.901Z,4.80
2019-03-29T21:38:30.962Z,4.80
2019-03-29T21:41:09.413Z,4.70
2019-03-29T21:43:52.822Z,4.70
2019-03-29T21:46:24.250Z,4.60
2019-03-29T21:48:52.973Z,4.60
2019-03-29T21:51:24.067Z,4.50
2019-03-29T21:53:54.593Z,4.50
2019-03-29T21:56:25.280Z,4.50
2019-03-29T21:58:56.926Z,4.40
2019-03-29T22:01:28.318Z,4.40
2019-03-29T22:03:59.400Z,4.30
2019-03-29T22:06:36.388Z,4.30
2019-03-29T22:09:11.035Z,4.20
2019-03-29T22:11:39.444Z,4.20
2019-03-29T22:14:07.866Z,4.20
2019-03-29T22:16:36.281Z,4.10
2019-03-29T22:19:08.061Z,4.10
2019-03-29T22:21:36.460Z,4.10
2019-03-29T22:24:14.741Z,4.00
2019-03-29T22:26:50.500Z,4.00
2019-03-29T22:29:21.790Z,4.00
2019-03-29T22:31:50.210Z,4.00
2019-03-29T22:34:30.089Z,3.90
2019-03-29T22:37:01.404Z,3.80
2019-03-29T22:39:41.964Z,3.80
2019-03-29T22:42:13.032Z,3.70
2019-03-29T22:44:45.817Z,3.70
2019-03-29T22:47:18.762Z,3.70
2019-03-29T22:49:47.186Z,3.70
2019-03-29T22:52:17.230Z,3.70
2019-03-29T22:54:48.578Z,3.60
2019-03-29T22:57:22.529Z,3.60
2019-03-29T22:59:53.842Z,3.60
2019-03-29T23:02:25.403Z,3.50
2019-03-29T23:04:56.792Z,3.40
2019-03-29T23:07:33.519Z,3.40
2019-03-29T23:10:04.884Z,3.40
2019-03-29T23:12:34.599Z,3.30
2019-03-29T23:15:03.371Z,3.30
2019-03-29T23:17:40.261Z,3.30
2019-03-29T23:20:09.694Z,3.30
2019-03-29T23:22:41.269Z,3.30
2019-03-29T23:25:09.865Z,3.20
2019-03-29T23:27:44.332Z,3.20
2019-03-29T23:30:14.304Z,3.20
2019-03-29T23:32:42.717Z,3.10
2019-03-29T23:35:12.944Z,3.10
2019-03-29T23:37:42.993Z,3.10
2019-03-29T23:40:27.330Z,3.00
2019-03-29T23:42:57.378Z,3.00
2019-03-29T23:45:32.182Z,2.90
2019-03-29T23:48:00.955Z,2.90
2019-03-29T23:50:39.248Z,2.90
2019-03-29T23:53:17.784Z,2.80
2019-03-29T23:55:43.637Z,2.80
2019-03-29T23:58:19.693Z,2.70
